sensor_id;sensor_type;location;lat;lon;timestamp;P1;durP1;ratioP1;P2;durP2;ratioP2
77938;SDS011;67136;47.546;21.630;2023-05-07T00:00:40;7.30;;;5.47;;
77938;SDS011;67136;47.546;21.630;2023-05-07T00:03:47;8.77;;;5.00;;
77938;SDS011;67136;47.546;21.630;2023-05-07T00:06:53;6.83;;;5.10;;
77938;SDS011;67136;47.546;21.630;2023-05-07T00:09:58;7.07;;;4.97;;
77938;SDS011;67136;47.546;21.630;2023-05-07T00:13:10;8.57;;;6.03;;
77938;SDS011;67136;47.546;21.630;2023-05-07T00:16:24;7.00;;;5.50;;
77938;SDS011;67136;47.546;21.630;2023-05-07T00:19:45;8.30;;;5.75;;
77938;SDS011;67136;47.546;21.630;2023-05-07T00:23:07;9.83;;;6.67;;
77938;SDS011;67136;47.546;21.630;2023-05-07T00:26:15;10.07;;;5.97;;
77938;SDS011;67136;47.546;21.630;2023-05-07T00:29:26;9.10;;;6.65;;
77938;SDS011;67136;47.546;21.630;2023-05-07T00:32:41;10.60;;;6.90;;
77938;SDS011;67136;47.546;21.630;2023-05-07T00:35:55;9.23;;;7.32;;
77938;SDS011;67136;47.546;21.630;2023-05-07T00:39:04;9.83;;;6.70;;
77938;SDS011;67136;47.546;21.630;2023-05-07T00:42:17;11.95;;;7.90;;
77938;SDS011;67136;47.546;21.630;2023-05-07T00:45:27;12.60;;;8.38;;
77938;SDS011;67136;47.546;21.630;2023-05-07T00:48:40;12.10;;;8.30;;
77938;SDS011;67136;47.546;21.630;2023-05-07T00:52:05;10.10;;;8.23;;
77938;SDS011;67136;47.546;21.630;2023-05-07T00:55:34;11.67;;;8.07;;
77938;SDS011;67136;47.546;21.630;2023-05-07T00:58:41;14.65;;;9.23;;
77938;SDS011;67136;47.546;21.630;2023-05-07T01:01:53;14.50;;;9.75;;
77938;SDS011;67136;47.546;21.630;2023-05-07T01:05:05;14.65;;;9.15;;
77938;SDS011;67136;47.546;21.630;2023-05-07T01:08:23;16.73;;;9.02;;
77938;SDS011;67136;47.546;21.630;2023-05-07T01:11:34;13.70;;;9.40;;
77938;SDS011;67136;47.546;21.630;2023-05-07T01:14:44;12.50;;;9.02;;
77938;SDS011;67136;47.546;21.630;2023-05-07T01:17:49;13.15;;;8.10;;
77938;SDS011;67136;47.546;21.630;2023-05-07T01:21:03;10.90;;;8.40;;
77938;SDS011;67136;47.546;21.630;2023-05-07T01:24:13;12.10;;;8.07;;
77938;SDS011;67136;47.546;21.630;2023-05-07T01:27:27;10.97;;;8.17;;
77938;SDS011;67136;47.546;21.630;2023-05-07T01:30:55;11.18;;;8.20;;
77938;SDS011;67136;47.546;21.630;2023-05-07T01:34:20;11.20;;;7.78;;
77938;SDS011;67136;47.546;21.630;2023-05-07T01:37:41;11.70;;;7.50;;
77938;SDS011;67136;47.546;21.630;2023-05-07T01:40:54;13.20;;;8.00;;
77938;SDS011;67136;47.546;21.630;2023-05-07T01:44:08;9.83;;;7.10;;
77938;SDS011;67136;47.546;21.630;2023-05-07T01:47:23;10.15;;;7.05;;
77938;SDS011;67136;47.546;21.630;2023-05-07T01:50:43;10.10;;;7.57;;
77938;SDS011;67136;47.546;21.630;2023-05-07T01:53:54;14.52;;;7.95;;
77938;SDS011;67136;47.546;21.630;2023-05-07T01:57:12;11.38;;;6.32;;
77938;SDS011;67136;47.546;21.630;2023-05-07T02:00:19;10.87;;;6.40;;
77938;SDS011;67136;47.546;21.630;2023-05-07T02:03:33;10.85;;;7.47;;
77938;SDS011;67136;47.546;21.630;2023-05-07T02:06:44;11.93;;;7.53;;
77938;SDS011;67136;47.546;21.630;2023-05-07T02:09:58;10.60;;;7.35;;
77938;SDS011;67136;47.546;21.630;2023-05-07T02:13:10;10.00;;;7.90;;
77938;SDS011;67136;47.546;21.630;2023-05-07T02:16:22;10.57;;;6.80;;
77938;SDS011;67136;47.546;21.630;2023-05-07T02:19:29;9.45;;;7.25;;
77938;SDS011;67136;47.546;21.630;2023-05-07T02:22:42;9.43;;;7.45;;
77938;SDS011;67136;47.546;21.630;2023-05-07T02:25:50;10.25;;;6.82;;
77938;SDS011;67136;47.546;21.630;2023-05-07T02:29:02;11.55;;;7.37;;
77938;SDS011;67136;47.546;21.630;2023-05-07T02:32:19;13.80;;;7.13;;
77938;SDS011;67136;47.546;21.630;2023-05-07T02:35:27;9.73;;;6.78;;
77938;SDS011;67136;47.546;21.630;2023-05-07T02:38:53;12.43;;;7.22;;
77938;SDS011;67136;47.546;21.630;2023-05-07T02:41:58;11.18;;;7.53;;
77938;SDS011;67136;47.546;21.630;2023-05-07T02:45:16;14.05;;;7.72;;
77938;SDS011;67136;47.546;21.630;2023-05-07T02:48:24;11.67;;;7.40;;
77938;SDS011;67136;47.546;21.630;2023-05-07T02:51:30;11.18;;;6.93;;
77938;SDS011;67136;47.546;21.630;2023-05-07T02:54:41;10.77;;;7.37;;
77938;SDS011;67136;47.546;21.630;2023-05-07T02:58:01;10.70;;;7.87;;
77938;SDS011;67136;47.546;21.630;2023-05-07T03:01:17;11.82;;;7.80;;
77938;SDS011;67136;47.546;21.630;2023-05-07T03:04:25;9.50;;;7.70;;
77938;SDS011;67136;47.546;21.630;2023-05-07T03:07:41;11.00;;;7.62;;
77938;SDS011;67136;47.546;21.630;2023-05-07T03:14:37;10.23;;;7.57;;
77938;SDS011;67136;47.546;21.630;2023-05-07T03:17:45;10.48;;;7.70;;
77938;SDS011;67136;47.546;21.630;2023-05-07T03:21:03;10.93;;;7.70;;
77938;SDS011;67136;47.546;21.630;2023-05-07T03:24:12;11.27;;;7.90;;
77938;SDS011;67136;47.546;21.630;2023-05-07T03:27:26;13.68;;;8.05;;
77938;SDS011;67136;47.546;21.630;2023-05-07T03:30:37;14.02;;;8.15;;
77938;SDS011;67136;47.546;21.630;2023-05-07T03:34:07;11.18;;;8.00;;
77938;SDS011;67136;47.546;21.630;2023-05-07T03:37:27;12.17;;;8.50;;
77938;SDS011;67136;47.546;21.630;2023-05-07T03:40:50;10.77;;;7.70;;
77938;SDS011;67136;47.546;21.630;2023-05-07T03:43:57;10.00;;;7.70;;
77938;SDS011;67136;47.546;21.630;2023-05-07T03:47:12;11.85;;;7.80;;
77938;SDS011;67136;47.546;21.630;2023-05-07T03:50:21;12.52;;;7.70;;
77938;SDS011;67136;47.546;21.630;2023-05-07T03:53:32;9.77;;;7.43;;
77938;SDS011;67136;47.546;21.630;2023-05-07T03:56:39;9.40;;;7.45;;
77938;SDS011;67136;47.546;21.630;2023-05-07T03:59:42;9.45;;;7.40;;
77938;SDS011;67136;47.546;21.630;2023-05-07T04:03:04;13.75;;;7.28;;
77938;SDS011;67136;47.546;21.630;2023-05-07T04:06:12;10.18;;;7.75;;
77938;SDS011;67136;47.546;21.630;2023-05-07T04:09:27;12.47;;;7.40;;
77938;SDS011;67136;47.546;21.630;2023-05-07T04:12:35;10.88;;;7.80;;
77938;SDS011;67136;47.546;21.630;2023-05-07T04:15:56;11.25;;;8.10;;
77938;SDS011;67136;47.546;21.630;2023-05-07T04:19:13;10.65;;;7.05;;
77938;SDS011;67136;47.546;21.630;2023-05-07T04:22:44;10.85;;;7.60;;
77938;SDS011;67136;47.546;21.630;2023-05-07T04:25:50;10.80;;;7.63;;
77938;SDS011;67136;47.546;21.630;2023-05-07T04:29:01;9.20;;;6.93;;
77938;SDS011;67136;47.546;21.630;2023-05-07T04:32:08;10.43;;;6.72;;
77938;SDS011;67136;47.546;21.630;2023-05-07T04:35:16;11.57;;;7.55;;
77938;SDS011;67136;47.546;21.630;2023-05-07T04:38:26;8.95;;;7.03;;
77938;SDS011;67136;47.546;21.630;2023-05-07T04:41:38;10.53;;;7.47;;
77938;SDS011;67136;47.546;21.630;2023-05-07T04:44:57;8.82;;;6.90;;
77938;SDS011;67136;47.546;21.630;2023-05-07T04:48:09;10.65;;;6.82;;
77938;SDS011;67136;47.546;21.630;2023-05-07T04:51:33;11.43;;;6.50;;
77938;SDS011;67136;47.546;21.630;2023-05-07T04:54:48;9.70;;;7.35;;
77938;SDS011;67136;47.546;21.630;2023-05-07T04:58:04;11.10;;;6.43;;
77938;SDS011;67136;47.546;21.630;2023-05-07T05:01:34;10.10;;;6.62;;
77938;SDS011;67136;47.546;21.630;2023-05-07T05:04:56;7.37;;;5.78;;
77938;SDS011;67136;47.546;21.630;2023-05-07T05:08:11;9.10;;;6.50;;
77938;SDS011;67136;47.546;21.630;2023-05-07T05:11:16;7.95;;;6.50;;
77938;SDS011;67136;47.546;21.630;2023-05-07T05:14:27;8.00;;;6.40;;
77938;SDS011;67136;47.546;21.630;2023-05-07T05:17:35;9.32;;;6.78;;
77938;SDS011;67136;47.546;21.630;2023-05-07T05:20:43;11.43;;;6.78;;
77938;SDS011;67136;47.546;21.630;2023-05-07T05:24:00;8.95;;;6.70;;
77938;SDS011;67136;47.546;21.630;2023-05-07T05:27:12;8.07;;;6.10;;
77938;SDS011;67136;47.546;21.630;2023-05-07T05:30:22;9.37;;;5.97;;
77938;SDS011;67136;47.546;21.630;2023-05-07T05:33:39;9.05;;;6.00;;
77938;SDS011;67136;47.546;21.630;2023-05-07T05:36:53;10.07;;;6.30;;
77938;SDS011;67136;47.546;21.630;2023-05-07T05:40:03;8.27;;;6.70;;
77938;SDS011;67136;47.546;21.630;2023-05-07T05:43:19;9.30;;;6.07;;
77938;SDS011;67136;47.546;21.630;2023-05-07T05:46:46;11.33;;;6.00;;
77938;SDS011;67136;47.546;21.630;2023-05-07T05:49:50;10.32;;;7.18;;
77938;SDS011;67136;47.546;21.630;2023-05-07T05:53:22;9.45;;;6.28;;
77938;SDS011;67136;47.546;21.630;2023-05-07T05:56:25;13.40;;;6.03;;
77938;SDS011;67136;47.546;21.630;2023-05-07T05:59:38;7.80;;;5.95;;
77938;SDS011;67136;47.546;21.630;2023-05-07T06:02:49;7.40;;;5.20;;
77938;SDS011;67136;47.546;21.630;2023-05-07T06:06:03;10.90;;;6.62;;
77938;SDS011;67136;47.546;21.630;2023-05-07T06:09:16;13.77;;;7.20;;
77938;SDS011;67136;47.546;21.630;2023-05-07T06:12:29;14.57;;;6.55;;
77938;SDS011;67136;47.546;21.630;2023-05-07T06:15:39;7.95;;;6.10;;
77938;SDS011;67136;47.546;21.630;2023-05-07T06:18:55;11.43;;;5.97;;
77938;SDS011;67136;47.546;21.630;2023-05-07T06:22:08;10.90;;;6.10;;
77938;SDS011;67136;47.546;21.630;2023-05-07T06:25:25;11.32;;;6.95;;
77938;SDS011;67136;47.546;21.630;2023-05-07T06:28:53;12.48;;;5.97;;
77938;SDS011;67136;47.546;21.630;2023-05-07T06:32:06;9.65;;;5.90;;
77938;SDS011;67136;47.546;21.630;2023-05-07T06:35:40;11.90;;;5.90;;
77938;SDS011;67136;47.546;21.630;2023-05-07T06:38:53;10.95;;;5.82;;
77938;SDS011;67136;47.546;21.630;2023-05-07T06:42:08;8.80;;;5.72;;
77938;SDS011;67136;47.546;21.630;2023-05-07T06:45:26;7.62;;;5.82;;
77938;SDS011;67136;47.546;21.630;2023-05-07T06:48:35;10.23;;;6.28;;
77938;SDS011;67136;47.546;21.630;2023-05-07T06:51:44;8.23;;;5.57;;
77938;SDS011;67136;47.546;21.630;2023-05-07T06:54:50;8.77;;;5.80;;
77938;SDS011;67136;47.546;21.630;2023-05-07T07:01:37;9.73;;;6.05;;
77938;SDS011;67136;47.546;21.630;2023-05-07T07:04:58;11.68;;;6.60;;
77938;SDS011;67136;47.546;21.630;2023-05-07T07:08:12;8.07;;;5.33;;
77938;SDS011;67136;47.546;21.630;2023-05-07T07:11:19;9.27;;;5.50;;
77938;SDS011;67136;47.546;21.630;2023-05-07T07:14:32;7.40;;;5.57;;
77938;SDS011;67136;47.546;21.630;2023-05-07T07:17:47;7.72;;;5.53;;
77938;SDS011;67136;47.546;21.630;2023-05-07T07:21:00;7.28;;;5.40;;
77938;SDS011;67136;47.546;21.630;2023-05-07T07:24:26;8.80;;;5.47;;
77938;SDS011;67136;47.546;21.630;2023-05-07T07:27:46;9.38;;;6.22;;
77938;SDS011;67136;47.546;21.630;2023-05-07T07:30:57;9.10;;;6.18;;
77938;SDS011;67136;47.546;21.630;2023-05-07T07:34:10;8.88;;;5.53;;
77938;SDS011;67136;47.546;21.630;2023-05-07T07:37:19;8.57;;;5.05;;
77938;SDS011;67136;47.546;21.630;2023-05-07T07:40:41;8.27;;;6.00;;
77938;SDS011;67136;47.546;21.630;2023-05-07T07:43:55;7.93;;;5.45;;
77938;SDS011;67136;47.546;21.630;2023-05-07T07:47:18;7.70;;;5.68;;
77938;SDS011;67136;47.546;21.630;2023-05-07T07:50:23;7.60;;;4.93;;
77938;SDS011;67136;47.546;21.630;2023-05-07T07:53:47;6.68;;;4.93;;
77938;SDS011;67136;47.546;21.630;2023-05-07T07:56:56;9.83;;;4.60;;
77938;SDS011;67136;47.546;21.630;2023-05-07T08:00:05;8.95;;;4.68;;
77938;SDS011;67136;47.546;21.630;2023-05-07T08:03:17;6.80;;;4.68;;
77938;SDS011;67136;47.546;21.630;2023-05-07T08:06:25;9.32;;;4.93;;
77938;SDS011;67136;47.546;21.630;2023-05-07T08:09:37;6.75;;;4.65;;
77938;SDS011;67136;47.546;21.630;2023-05-07T08:12:48;9.80;;;4.30;;
77938;SDS011;67136;47.546;21.630;2023-05-07T08:16:00;7.47;;;3.90;;
77938;SDS011;67136;47.546;21.630;2023-05-07T08:19:18;5.72;;;3.70;;
77938;SDS011;67136;47.546;21.630;2023-05-07T08:22:38;8.93;;;3.70;;
77938;SDS011;67136;47.546;21.630;2023-05-07T08:25:55;5.32;;;3.85;;
77938;SDS011;67136;47.546;21.630;2023-05-07T08:29:16;6.30;;;3.83;;
77938;SDS011;67136;47.546;21.630;2023-05-07T08:32:21;5.25;;;3.53;;
77938;SDS011;67136;47.546;21.630;2023-05-07T08:35:31;5.53;;;3.83;;
77938;SDS011;67136;47.546;21.630;2023-05-07T08:38:39;4.07;;;3.20;;
77938;SDS011;67136;47.546;21.630;2023-05-07T08:41:56;5.05;;;3.40;;
77938;SDS011;67136;47.546;21.630;2023-05-07T08:45:22;5.87;;;3.67;;
77938;SDS011;67136;47.546;21.630;2023-05-07T08:48:29;4.20;;;3.10;;
77938;SDS011;67136;47.546;21.630;2023-05-07T08:51:42;4.68;;;3.60;;
77938;SDS011;67136;47.546;21.630;2023-05-07T08:54:50;8.45;;;4.18;;
77938;SDS011;67136;47.546;21.630;2023-05-07T08:58:10;4.82;;;3.75;;
77938;SDS011;67136;47.546;21.630;2023-05-07T09:01:34;8.80;;;3.50;;
77938;SDS011;67136;47.546;21.630;2023-05-07T09:04:44;7.47;;;3.40;;
77938;SDS011;67136;47.546;21.630;2023-05-07T09:08:01;6.20;;;3.75;;
77938;SDS011;67136;47.546;21.630;2023-05-07T09:11:15;4.10;;;3.70;;
77938;SDS011;67136;47.546;21.630;2023-05-07T09:14:29;6.25;;;3.42;;
77938;SDS011;67136;47.546;21.630;2023-05-07T09:18:10;4.60;;;3.67;;
77938;SDS011;67136;47.546;21.630;2023-05-07T09:21:23;10.18;;;2.90;;
77938;SDS011;67136;47.546;21.630;2023-05-07T09:25:02;3.35;;;3.03;;
77938;SDS011;67136;47.546;21.630;2023-05-07T09:28:13;11.80;;;4.18;;
77938;SDS011;67136;47.546;21.630;2023-05-07T09:31:35;8.45;;;2.90;;
77938;SDS011;67136;47.546;21.630;2023-05-07T09:34:41;5.93;;;3.07;;
77938;SDS011;67136;47.546;21.630;2023-05-07T09:37:51;4.62;;;2.75;;
77938;SDS011;67136;47.546;21.630;2023-05-07T09:41:10;4.07;;;2.45;;
77938;SDS011;67136;47.546;21.630;2023-05-07T09:44:43;5.05;;;3.15;;
77938;SDS011;67136;47.546;21.630;2023-05-07T09:47:47;7.43;;;2.95;;
77938;SDS011;67136;47.546;21.630;2023-05-07T09:51:01;6.77;;;2.60;;
77938;SDS011;67136;47.546;21.630;2023-05-07T09:54:24;8.90;;;2.92;;
77938;SDS011;67136;47.546;21.630;2023-05-07T09:57:53;6.60;;;2.90;;
77938;SDS011;67136;47.546;21.630;2023-05-07T10:01:07;6.57;;;3.35;;
77938;SDS011;67136;47.546;21.630;2023-05-07T10:04:42;4.05;;;2.97;;
77938;SDS011;67136;47.546;21.630;2023-05-07T10:07:56;8.13;;;3.20;;
77938;SDS011;67136;47.546;21.630;2023-05-07T10:11:04;8.68;;;2.70;;
77938;SDS011;67136;47.546;21.630;2023-05-07T10:14:13;4.32;;;3.12;;
77938;SDS011;67136;47.546;21.630;2023-05-07T10:17:31;4.70;;;2.85;;
77938;SDS011;67136;47.546;21.630;2023-05-07T10:21:04;4.65;;;2.92;;
77938;SDS011;67136;47.546;21.630;2023-05-07T10:24:29;4.87;;;2.70;;
77938;SDS011;67136;47.546;21.630;2023-05-07T10:27:47;5.20;;;2.70;;
77938;SDS011;67136;47.546;21.630;2023-05-07T10:34:24;7.07;;;3.00;;
77938;SDS011;67136;47.546;21.630;2023-05-07T10:37:37;5.18;;;2.62;;
77938;SDS011;67136;47.546;21.630;2023-05-07T10:40:51;7.03;;;2.83;;
77938;SDS011;67136;47.546;21.630;2023-05-07T10:43:56;4.62;;;2.97;;
77938;SDS011;67136;47.546;21.630;2023-05-07T10:47:10;5.40;;;3.10;;
77938;SDS011;67136;47.546;21.630;2023-05-07T10:50:21;4.95;;;3.25;;
77938;SDS011;67136;47.546;21.630;2023-05-07T10:53:29;3.72;;;3.30;;
77938;SDS011;67136;47.546;21.630;2023-05-07T10:56:42;3.87;;;2.80;;
77938;SDS011;67136;47.546;21.630;2023-05-07T10:59:56;6.93;;;2.97;;
77938;SDS011;67136;47.546;21.630;2023-05-07T11:03:04;4.85;;;3.10;;
77938;SDS011;67136;47.546;21.630;2023-05-07T11:06:22;4.32;;;3.33;;
77938;SDS011;67136;47.546;21.630;2023-05-07T11:09:58;4.07;;;2.87;;
77938;SDS011;67136;47.546;21.630;2023-05-07T11:13:08;6.67;;;3.13;;
77938;SDS011;67136;47.546;21.630;2023-05-07T11:19:54;4.10;;;3.00;;
77938;SDS011;67136;47.546;21.630;2023-05-07T11:26:43;7.05;;;3.17;;
77938;SDS011;67136;47.546;21.630;2023-05-07T11:29:56;6.43;;;3.37;;
77938;SDS011;67136;47.546;21.630;2023-05-07T11:33:12;5.07;;;3.22;;
77938;SDS011;67136;47.546;21.630;2023-05-07T11:36:33;3.78;;;2.55;;
77938;SDS011;67136;47.546;21.630;2023-05-07T11:39:39;3.83;;;2.78;;
77938;SDS011;67136;47.546;21.630;2023-05-07T11:42:55;8.90;;;3.55;;
77938;SDS011;67136;47.546;21.630;2023-05-07T11:46:15;3.90;;;2.70;;
77938;SDS011;67136;47.546;21.630;2023-05-07T11:49:24;3.33;;;2.72;;
77938;SDS011;67136;47.546;21.630;2023-05-07T11:52:37;5.20;;;2.90;;
77938;SDS011;67136;47.546;21.630;2023-05-07T11:56:16;3.15;;;2.50;;
77938;SDS011;67136;47.546;21.630;2023-05-07T11:59:20;4.25;;;2.78;;
77938;SDS011;67136;47.546;21.630;2023-05-07T12:02:31;6.63;;;3.43;;
77938;SDS011;67136;47.546;21.630;2023-05-07T12:05:52;4.65;;;2.97;;
77938;SDS011;67136;47.546;21.630;2023-05-07T12:09:03;3.00;;;2.70;;
77938;SDS011;67136;47.546;21.630;2023-05-07T12:12:26;7.72;;;3.40;;
77938;SDS011;67136;47.546;21.630;2023-05-07T12:15:36;6.00;;;2.80;;
77938;SDS011;67136;47.546;21.630;2023-05-07T12:18:51;3.80;;;2.47;;
77938;SDS011;67136;47.546;21.630;2023-05-07T12:22:04;2.65;;;2.30;;
77938;SDS011;67136;47.546;21.630;2023-05-07T12:25:13;3.95;;;3.00;;
77938;SDS011;67136;47.546;21.630;2023-05-07T12:28:38;4.85;;;2.72;;
77938;SDS011;67136;47.546;21.630;2023-05-07T12:31:49;4.40;;;3.10;;
77938;SDS011;67136;47.546;21.630;2023-05-07T12:34:59;2.80;;;2.30;;
77938;SDS011;67136;47.546;21.630;2023-05-07T12:38:15;8.52;;;2.60;;
77938;SDS011;67136;47.546;21.630;2023-05-07T12:41:27;3.65;;;2.80;;
77938;SDS011;67136;47.546;21.630;2023-05-07T12:44:39;4.85;;;2.50;;
77938;SDS011;67136;47.546;21.630;2023-05-07T12:47:45;4.37;;;2.70;;
77938;SDS011;67136;47.546;21.630;2023-05-07T12:50:55;4.17;;;2.73;;
77938;SDS011;67136;47.546;21.630;2023-05-07T12:54:05;2.92;;;2.30;;
77938;SDS011;67136;47.546;21.630;2023-05-07T12:57:24;3.87;;;2.42;;
77938;SDS011;67136;47.546;21.630;2023-05-07T13:00:37;5.87;;;2.20;;
77938;SDS011;67136;47.546;21.630;2023-05-07T13:03:52;3.62;;;2.30;;
77938;SDS011;67136;47.546;21.630;2023-05-07T13:07:00;2.17;;;1.97;;
77938;SDS011;67136;47.546;21.630;2023-05-07T13:10:06;4.85;;;2.12;;
77938;SDS011;67136;47.546;21.630;2023-05-07T13:13:39;2.70;;;2.10;;
77938;SDS011;67136;47.546;21.630;2023-05-07T13:16:51;6.12;;;2.12;;
77938;SDS011;67136;47.546;21.630;2023-05-07T13:20:00;3.03;;;2.08;;
77938;SDS011;67136;47.546;21.630;2023-05-07T13:23:23;2.37;;;1.80;;
77938;SDS011;67136;47.546;21.630;2023-05-07T13:26:31;2.35;;;2.15;;
77938;SDS011;67136;47.546;21.630;2023-05-07T13:29:49;4.50;;;2.30;;
77938;SDS011;67136;47.546;21.630;2023-05-07T13:32:55;3.72;;;2.40;;
77938;SDS011;67136;47.546;21.630;2023-05-07T13:36:06;6.30;;;2.45;;
77938;SDS011;67136;47.546;21.630;2023-05-07T13:39:37;4.50;;;2.50;;
77938;SDS011;67136;47.546;21.630;2023-05-07T13:42:41;4.60;;;2.70;;
77938;SDS011;67136;47.546;21.630;2023-05-07T13:45:53;2.80;;;2.45;;
77938;SDS011;67136;47.546;21.630;2023-05-07T13:49:06;6.15;;;2.33;;
77938;SDS011;67136;47.546;21.630;2023-05-07T13:52:36;2.80;;;1.92;;
77938;SDS011;67136;47.546;21.630;2023-05-07T13:56:08;3.93;;;2.50;;
77938;SDS011;67136;47.546;21.630;2023-05-07T13:59:30;2.80;;;2.20;;
77938;SDS011;67136;47.546;21.630;2023-05-07T14:02:48;5.30;;;2.20;;
77938;SDS011;67136;47.546;21.630;2023-05-07T14:06:15;3.85;;;2.22;;
77938;SDS011;67136;47.546;21.630;2023-05-07T14:09:24;3.42;;;2.30;;
77938;SDS011;67136;47.546;21.630;2023-05-07T14:12:36;2.80;;;2.13;;
77938;SDS011;67136;47.546;21.630;2023-05-07T14:15:41;5.70;;;2.30;;
77938;SDS011;67136;47.546;21.630;2023-05-07T14:18:59;3.33;;;2.25;;
77938;SDS011;67136;47.546;21.630;2023-05-07T14:22:21;4.00;;;2.05;;
77938;SDS011;67136;47.546;21.630;2023-05-07T14:25:37;8.40;;;2.50;;
77938;SDS011;67136;47.546;21.630;2023-05-07T14:28:51;2.80;;;2.40;;
77938;SDS011;67136;47.546;21.630;2023-05-07T14:32:02;3.95;;;2.10;;
77938;SDS011;67136;47.546;21.630;2023-05-07T14:35:26;2.42;;;2.05;;
77938;SDS011;67136;47.546;21.630;2023-05-07T14:38:37;6.03;;;2.30;;
77938;SDS011;67136;47.546;21.630;2023-05-07T14:41:43;3.20;;;2.50;;
77938;SDS011;67136;47.546;21.630;2023-05-07T14:45:01;3.57;;;2.40;;
77938;SDS011;67136;47.546;21.630;2023-05-07T14:48:08;3.17;;;2.10;;
77938;SDS011;67136;47.546;21.630;2023-05-07T14:51:20;6.60;;;3.10;;
77938;SDS011;67136;47.546;21.630;2023-05-07T14:54:23;5.15;;;2.50;;
77938;SDS011;67136;47.546;21.630;2023-05-07T14:57:53;4.60;;;2.95;;
77938;SDS011;67136;47.546;21.630;2023-05-07T15:00:56;10.27;;;3.97;;
77938;SDS011;67136;47.546;21.630;2023-05-07T15:04:04;5.60;;;4.20;;
77938;SDS011;67136;47.546;21.630;2023-05-07T15:07:21;7.35;;;4.57;;
77938;SDS011;67136;47.546;21.630;2023-05-07T15:10:40;12.07;;;5.28;;
77938;SDS011;67136;47.546;21.630;2023-05-07T15:13:50;12.02;;;6.20;;
77938;SDS011;67136;47.546;21.630;2023-05-07T15:17:04;10.07;;;5.50;;
77938;SDS011;67136;47.546;21.630;2023-05-07T15:20:21;10.70;;;4.70;;
77938;SDS011;67136;47.546;21.630;2023-05-07T15:23:29;6.68;;;4.32;;
77938;SDS011;67136;47.546;21.630;2023-05-07T15:26:34;12.43;;;4.85;;
77938;SDS011;67136;47.546;21.630;2023-05-07T15:29:46;7.28;;;4.62;;
77938;SDS011;67136;47.546;21.630;2023-05-07T15:33:05;8.67;;;4.93;;
77938;SDS011;67136;47.546;21.630;2023-05-07T15:36:14;9.80;;;4.93;;
77938;SDS011;67136;47.546;21.630;2023-05-07T15:39:17;8.38;;;4.78;;
77938;SDS011;67136;47.546;21.630;2023-05-07T15:42:28;9.13;;;4.10;;
77938;SDS011;67136;47.546;21.630;2023-05-07T15:45:47;9.85;;;4.12;;
77938;SDS011;67136;47.546;21.630;2023-05-07T15:49:07;8.07;;;3.97;;
77938;SDS011;67136;47.546;21.630;2023-05-07T15:52:14;7.57;;;3.62;;
77938;SDS011;67136;47.546;21.630;2023-05-07T15:55:42;6.28;;;3.30;;
77938;SDS011;67136;47.546;21.630;2023-05-07T15:58:52;6.43;;;3.53;;
77938;SDS011;67136;47.546;21.630;2023-05-07T16:02:02;6.20;;;2.78;;
77938;SDS011;67136;47.546;21.630;2023-05-07T16:05:12;4.33;;;2.70;;
77938;SDS011;67136;47.546;21.630;2023-05-07T16:08:50;4.43;;;3.10;;
77938;SDS011;67136;47.546;21.630;2023-05-07T16:11:57;8.18;;;2.70;;
77938;SDS011;67136;47.546;21.630;2023-05-07T16:15:03;3.55;;;2.50;;
77938;SDS011;67136;47.546;21.630;2023-05-07T16:18:18;4.35;;;3.00;;
77938;SDS011;67136;47.546;21.630;2023-05-07T16:21:33;4.53;;;2.50;;
77938;SDS011;67136;47.546;21.630;2023-05-07T16:24:43;4.12;;;2.60;;
77938;SDS011;67136;47.546;21.630;2023-05-07T16:28:00;5.43;;;2.47;;
77938;SDS011;67136;47.546;21.630;2023-05-07T16:31:11;4.15;;;2.58;;
77938;SDS011;67136;47.546;21.630;2023-05-07T16:34:23;5.15;;;2.10;;
77938;SDS011;67136;47.546;21.630;2023-05-07T16:37:38;3.20;;;2.40;;
77938;SDS011;67136;47.546;21.630;2023-05-07T16:40:45;3.75;;;2.17;;
77938;SDS011;67136;47.546;21.630;2023-05-07T16:43:50;7.20;;;3.42;;
77938;SDS011;67136;47.546;21.630;2023-05-07T16:47:03;5.75;;;2.20;;
77938;SDS011;67136;47.546;21.630;2023-05-07T16:50:23;5.07;;;2.53;;
77938;SDS011;67136;47.546;21.630;2023-05-07T16:53:41;4.40;;;2.27;;
77938;SDS011;67136;47.546;21.630;2023-05-07T16:57:08;4.43;;;2.20;;
77938;SDS011;67136;47.546;21.630;2023-05-07T17:00:32;3.20;;;2.20;;
77938;SDS011;67136;47.546;21.630;2023-05-07T17:03:53;6.12;;;2.33;;
77938;SDS011;67136;47.546;21.630;2023-05-07T17:07:03;7.00;;;2.50;;
77938;SDS011;67136;47.546;21.630;2023-05-07T17:10:19;7.53;;;2.60;;
77938;SDS011;67136;47.546;21.630;2023-05-07T17:13:34;4.45;;;2.53;;
77938;SDS011;67136;47.546;21.630;2023-05-07T17:16:44;3.75;;;2.58;;
77938;SDS011;67136;47.546;21.630;2023-05-07T17:19:55;7.22;;;2.85;;
77938;SDS011;67136;47.546;21.630;2023-05-07T17:23:04;6.03;;;2.87;;
77938;SDS011;67136;47.546;21.630;2023-05-07T17:26:15;3.53;;;2.47;;
77938;SDS011;67136;47.546;21.630;2023-05-07T17:29:22;4.25;;;2.50;;
77938;SDS011;67136;47.546;21.630;2023-05-07T17:32:35;4.47;;;2.95;;
77938;SDS011;67136;47.546;21.630;2023-05-07T17:36:04;4.22;;;2.20;;
77938;SDS011;67136;47.546;21.630;2023-05-07T17:39:23;3.40;;;2.50;;
77938;SDS011;67136;47.546;21.630;2023-05-07T17:42:31;3.40;;;2.60;;
77938;SDS011;67136;47.546;21.630;2023-05-07T17:45:38;5.82;;;2.53;;
77938;SDS011;67136;47.546;21.630;2023-05-07T17:49:34;3.78;;;2.10;;
77938;SDS011;67136;47.546;21.630;2023-05-07T17:53:04;5.12;;;2.70;;
77938;SDS011;67136;47.546;21.630;2023-05-07T17:56:21;5.10;;;2.67;;
77938;SDS011;67136;47.546;21.630;2023-05-07T17:59:29;4.00;;;2.70;;
77938;SDS011;67136;47.546;21.630;2023-05-07T18:02:49;6.15;;;2.70;;
77938;SDS011;67136;47.546;21.630;2023-05-07T18:06:10;7.57;;;3.00;;
77938;SDS011;67136;47.546;21.630;2023-05-07T18:09:27;6.25;;;3.12;;
77938;SDS011;67136;47.546;21.630;2023-05-07T18:12:35;5.93;;;2.65;;
77938;SDS011;67136;47.546;21.630;2023-05-07T18:15:55;5.27;;;3.27;;
77938;SDS011;67136;47.546;21.630;2023-05-07T18:19:12;9.43;;;3.00;;
77938;SDS011;67136;47.546;21.630;2023-05-07T18:22:19;5.75;;;2.80;;
77938;SDS011;67136;47.546;21.630;2023-05-07T18:25:35;7.05;;;3.58;;
77938;SDS011;67136;47.546;21.630;2023-05-07T18:28:44;6.78;;;3.35;;
77938;SDS011;67136;47.546;21.630;2023-05-07T18:32:00;6.27;;;3.17;;
77938;SDS011;67136;47.546;21.630;2023-05-07T18:35:22;6.65;;;2.87;;
77938;SDS011;67136;47.546;21.630;2023-05-07T18:38:29;7.07;;;3.35;;
77938;SDS011;67136;47.546;21.630;2023-05-07T18:41:46;5.18;;;2.80;;
77938;SDS011;67136;47.546;21.630;2023-05-07T18:44:54;5.35;;;3.10;;
77938;SDS011;67136;47.546;21.630;2023-05-07T18:48:19;5.17;;;2.83;;
77938;SDS011;67136;47.546;21.630;2023-05-07T18:51:38;5.53;;;3.10;;
77938;SDS011;67136;47.546;21.630;2023-05-07T18:54:49;5.45;;;3.17;;
77938;SDS011;67136;47.546;21.630;2023-05-07T18:58:01;4.95;;;2.85;;
77938;SDS011;67136;47.546;21.630;2023-05-07T19:01:14;13.18;;;3.17;;
77938;SDS011;67136;47.546;21.630;2023-05-07T19:04:59;5.53;;;2.70;;
77938;SDS011;67136;47.546;21.630;2023-05-07T19:08:30;5.62;;;2.90;;
77938;SDS011;67136;47.546;21.630;2023-05-07T19:11:45;3.65;;;2.35;;
77938;SDS011;67136;47.546;21.630;2023-05-07T19:15:02;4.45;;;2.72;;
77938;SDS011;67136;47.546;21.630;2023-05-07T19:18:28;7.00;;;3.12;;
77938;SDS011;67136;47.546;21.630;2023-05-07T19:21:41;7.17;;;2.83;;
77938;SDS011;67136;47.546;21.630;2023-05-07T19:25:00;7.00;;;2.83;;
77938;SDS011;67136;47.546;21.630;2023-05-07T19:28:19;5.18;;;3.05;;